Item Display Status Humidity-temperature Sensor

Elevation Above Sea Level: 3 m

 

Deployed Sensor

  • Serial Number: 20351123
  • NDBC Property Number: 43293
  • Start Date: 4/17/2020 (10:35:43 Z)
  • End Date: Currently Active
Relative Humidity [%]     6 entries per hour
Showing data from 7/29/2021 (11:00:00 Z) to 7/28/2021 (00:00:01 Z)
Previous Next [ Day | 3-Days | 7-Days ]
First Last
Prev [ Day | 3-Days | 7-Days ] Next
First Last

Start Time:     :
End Time:     :     
Time (in GMT) :00 :50 :40 :30 :20 :10
Previous Next [ Day | 3-Days | 7-Days ]
First Last
Prev [ Day | 3-Days | 7-Days ] Next
First Last


123 => good data
MM => data is determined as missing
-- => data not received/configured
Back to Top Back to Top
7/29/2021 11:00 to 10:10 85.99 85.83 85.74 85.62 85.35 85.19
7/29/2021 10:00 to 9:10 85.33 85.64 85.89 85.74 85.85 86.32
7/29/2021 09:00 to 8:10 86.40 86.50 86.03 85.68 85.74 85.62
7/29/2021 08:00 to 7:10 85.29 86.01 85.97 85.68 85.62 85.21
7/29/2021 07:00 to 6:10 84.39 84.45 84.61 84.86 85.23 84.82
7/29/2021 06:00 to 5:10 84.31 84.18 84.59 84.14 84.18 84.41
7/29/2021 05:00 to 4:10 84.08 83.77 84.00 84.00 84.35 83.89
7/29/2021 04:00 to 3:10 84.31 84.16 84.10 84.84 85.21 85.54
7/29/2021 03:00 to 2:10 86.22 85.85 85.56 85.72 85.74 85.68
7/29/2021 02:00 to 1:10 85.39 85.27 85.29 85.39 85.97 86.83
7/29/2021 01:00 to 0:10 87.33 87.70 86.92 86.18 85.46 85.25
7/29/2021 00:00 to 23:10 85.27 84.70 85.03 85.15 84.86 84.51
7/28/2021 23:00 to 22:10 83.94 83.87 84.18 84.53 84.92 85.03
7/28/2021 22:00 to 21:10 85.09 85.39 85.09 85.48 85.13 85.13
7/28/2021 21:00 to 20:10 85.87 86.98 87.31 88.13 89.53 90.22
7/28/2021 20:00 to 19:10 90.88 91.17 90.06 88.11 87.06 87.43
7/28/2021 19:00 to 18:10 88.37 89.61 90.08 89.53 87.66 86.50
7/28/2021 18:00 to 17:10 87.90 88.25 88.62 88.72 89.26 89.24
7/28/2021 17:00 to 16:10 89.07 89.20 89.05 88.23 87.45 86.61
7/28/2021 16:00 to 15:10 86.07 85.62 86.13 86.48 86.67 87.26
7/28/2021 15:00 to 14:10 87.10 87.00 87.14 87.63 87.06 87.49
7/28/2021 14:00 to 13:10 87.10 86.90 86.34 86.42 86.69 86.90
7/28/2021 13:00 to 12:10 86.63 87.37 88.13 88.66 89.55 90.27
7/28/2021 12:00 to 11:10 90.41 89.26 88.54 88.50 88.68 89.26
7/28/2021 11:00 to 10:10 89.40 89.34 88.81 87.84 86.83 85.91
7/28/2021 10:00 to 9:10 85.21 84.74 84.10 82.99 83.11 83.38
7/28/2021 09:00 to 8:10 83.65 84.04 84.26 83.96 83.89 83.79
7/28/2021 08:00 to 7:10 83.24 83.48 83.87 84.02 84.86 84.88
7/28/2021 07:00 to 6:10 85.03 85.83 86.24 86.42 86.24 85.70
7/28/2021 06:00 to 5:10 83.94 83.57 83.32 82.93 83.09 83.32
7/28/2021 05:00 to 4:10 84.06 84.24 84.61 84.51 85.25 85.72
7/28/2021 04:00 to 3:10 86.11 86.59 87.10 87.98 87.22 86.79
7/28/2021 03:00 to 2:10 86.38 85.70 85.39 85.29 85.19 85.09
7/28/2021 02:00 to 1:10 85.27 85.50 85.00 85.00 84.66 85.44
7/28/2021 01:00 to 0:10 85.85 85.56 85.46 85.00 85.66 86.24

 

 

 

Air Temperature [°C]     6 entries per hour
Showing data from 7/29/2021 (11:00:00 Z) to 7/28/2021 (00:00:01 Z)
Previous Next [ Day | 3-Days | 7-Days ]
First Last
Prev [ Day | 3-Days | 7-Days ] Next
First Last

Start Time:     :
End Time:     :     
Time (in GMT) :00 :50 :40 :30 :20 :10
Previous Next [ Day | 3-Days | 7-Days ]
First Last
Prev [ Day | 3-Days | 7-Days ] Next
First Last


123 => good data
MM => data is determined as missing
-- => data not received/configured
Back to Top Back to Top
7/29/2021 11:00 to 10:10 26.51 26.47 26.39 26.56 26.51 26.51
7/29/2021 10:00 to 9:10 26.30 26.40 26.51 26.44 26.32 26.33
7/29/2021 09:00 to 8:10 26.29 26.33 26.40 26.28 26.43 26.37
7/29/2021 08:00 to 7:10 26.33 26.35 26.52 26.42 26.40 26.62
7/29/2021 07:00 to 6:10 26.67 26.44 26.42 26.39 26.50 26.45
7/29/2021 06:00 to 5:10 26.47 26.49 26.32 26.47 26.40 26.35
7/29/2021 05:00 to 4:10 26.42 26.28 26.37 26.36 26.44 26.30
7/29/2021 04:00 to 3:10 26.34 26.42 26.36 26.31 26.34 26.19
7/29/2021 03:00 to 2:10 26.26 26.21 26.25 26.31 26.28 26.29
7/29/2021 02:00 to 1:10 26.36 26.41 26.29 26.41 26.21 26.12
7/29/2021 01:00 to 0:10 26.10 26.12 26.31 26.23 26.49 26.33
7/29/2021 00:00 to 23:10 26.52 26.41 26.31 26.27 26.40 26.40
7/28/2021 23:00 to 22:10 26.55 26.59 26.57 26.40 26.42 26.47
7/28/2021 22:00 to 21:10 26.36 26.43 26.64 26.36 26.71 26.48
7/28/2021 21:00 to 20:10 26.30 26.35 26.16 26.16 26.02 25.81
7/28/2021 20:00 to 19:10 25.75 25.74 25.63 25.93 26.13 26.08
7/28/2021 19:00 to 18:10 26.15 25.90 25.98 25.85 26.38 26.13
7/28/2021 18:00 to 17:10 26.05 26.09 26.16 26.19 26.00 25.92
7/28/2021 17:00 to 16:10 26.01 26.09 26.08 26.13 26.36 26.25
7/28/2021 16:00 to 15:10 26.22 26.35 26.29 26.29 26.24 26.03
7/28/2021 15:00 to 14:10 26.18 26.26 26.10 26.20 26.12 26.16
7/28/2021 14:00 to 13:10 26.12 26.10 26.22 26.16 26.01 26.16
7/28/2021 13:00 to 12:10 26.23 26.13 26.14 26.12 26.11 25.86
7/28/2021 12:00 to 11:10 26.24 26.32 26.25 26.19 26.32 26.12
7/28/2021 11:00 to 10:10 26.03 25.98 25.96 26.12 26.24 26.17
7/28/2021 10:00 to 9:10 26.40 26.31 26.38 26.43 26.44 26.26
7/28/2021 09:00 to 8:10 26.28 26.24 26.36 26.25 26.32 26.46
7/28/2021 08:00 to 7:10 26.47 26.32 26.40 26.37 26.39 26.44
7/28/2021 07:00 to 6:10 26.42 26.32 26.21 26.19 26.23 25.91
7/28/2021 06:00 to 5:10 26.54 26.41 26.39 26.37 26.37 26.29
7/28/2021 05:00 to 4:10 26.32 26.44 26.46 26.40 26.19 26.25
7/28/2021 04:00 to 3:10 26.19 26.32 26.16 26.14 26.26 26.24
7/28/2021 03:00 to 2:10 26.31 26.33 26.26 26.29 26.10 26.09
7/28/2021 02:00 to 1:10 26.09 26.15 26.14 26.01 26.13 26.00
7/28/2021 01:00 to 0:10 26.07 26.21 26.01 26.12 26.05 25.83